Terminal Aerodrome Forecast
Issued by NWS Sterling, VA

Home | Current Version | Previous Version | Text Only | Print | Product List | Glossary On
Versions: 1 2 3 4 5 6 7 8 9 10 11 12 13 14 15 16 17 18 19 20 21 22 23 24 25 26 27 28 29 30 31 32 33 34 35 36 37 38 39 40 41 42 43 44 45 46 47
000
FTUS41 KLWX 241720
TAFDCA
TAF
KDCA 241720Z 2418/2524 20009KT P6SM FEW140 SCT250
     FM250000 18005KT P6SM SCT150 BKN250
     FM251300 35004KT P6SM BKN050
     FM251800 03006KT P6SM -RA OVC040
     FM252200 03008KT 5SM -RA OVC030=

USA.gov is the U.S. government's official web portal to all federal, state and local government web resources and services.